Time;durP1;ratioP1;P1;durP2;ratioP2;P2;SDS_P1;SDS_P2;PMS_P1;PMS_P2;Temp;Humidity;BMP_temperature;BMP_pressure;BME280_temperature;BME280_humidity;BME280_pressure;Samples;Min_cycle;Max_cycle;Signal;HPM_P1;HPM_P2
2021/11/20 00:01:36;;;;;;;11.33;7.20;;;;;;;9.62;100.00;99477.48;4415993;79;28480;-89
2021/11/20 00:07:38;;;;;;;13.40;7.37;;;;;;;9.70;100.00;99483.64;4395955;79;28535;-87
2021/11/20 00:13:42;;;;;;;11.65;7.22;;;;;;;9.73;100.00;99479.98;4398449;79;28563;-88
2021/11/20 00:19:44;;;;;;;12.78;7.72;;;;;;;9.72;100.00;99482.91;4412349;79;28456;-91
2021/11/20 00:25:54;;;;;;;11.90;7.25;;;;;;;9.69;100.00;99500.26;4412593;79;28472;-87
2021/11/20 00:32:01;;;;;;;12.37;7.70;;;;;;;9.71;100.00;99496.03;4387448;79;28489;-87
2021/11/20 00:38:06;;;;;;;11.40;6.45;;;;;;;9.67;100.00;99490.26;4398683;79;28474;-86
2021/11/20 00:44:08;;;;;;;13.60;6.72;;;;;;;9.65;100.00;99477.58;4378255;79;28453;-84
2021/11/20 00:50:14;;;;;;;11.93;7.00;;;;;;;9.71;100.00;99468.64;4404020;79;28538;-84
2021/11/20 00:56:19;;;;;;;9.90;6.03;;;;;;;9.71;100.00;99466.50;4511848;77;28498;-83
2021/11/20 01:02:20;;;;;;;12.43;6.77;;;;;;;9.71;100.00;99455.75;4519080;77;28508;-84
2021/11/20 01:08:28;;;;;;;11.85;6.58;;;;;;;9.74;100.00;99452.13;4510878;77;28527;-84
2021/11/20 01:14:32;;;;;;;13.20;7.08;;;;;;;9.76;100.00;99469.34;4509711;77;28460;-84
2021/11/20 01:20:36;;;;;;;13.03;6.97;;;;;;;9.78;100.00;99458.40;4486201;77;28450;-84
2021/11/20 01:26:39;;;;;;;9.93;6.00;;;;;;;9.76;100.00;99451.38;4446949;79;28550;-85
2021/11/20 01:32:42;;;;;;;9.98;5.60;;;;;;;9.79;100.00;99454.67;4422913;79;28490;-85
2021/11/20 01:38:46;;;;;;;11.53;5.87;;;;;;;9.81;100.00;99447.22;4376744;80;28475;-84
2021/11/20 01:44:57;;;;;;;9.55;6.10;;;;;;;9.82;100.00;99425.53;4399052;80;28538;-85
2021/11/20 01:51:30;;;;;;;10.35;5.03;;;;;;;9.82;100.00;99435.43;4411705;80;28475;-86
2021/11/20 01:57:49;;;;;;;8.40;5.58;;;;;;;9.79;100.00;99420.59;4396501;80;28505;-86
2021/11/20 02:04:01;;;;;;;9.50;5.20;;;;;;;9.79;100.00;99408.52;4373571;80;28523;-87
2021/11/20 02:10:10;;;;;;;9.93;4.95;;;;;;;9.84;100.00;99415.89;4351420;80;28473;-85
2021/11/20 02:16:37;;;;;;;10.88;5.33;;;;;;;9.83;100.00;99398.97;4342512;80;28547;-84
2021/11/20 02:22:39;;;;;;;10.90;5.00;;;;;;;9.78;100.00;99400.66;4532921;77;28452;-83
2021/11/20 02:28:42;;;;;;;8.00;4.40;;;;;;;9.80;100.00;99384.64;4532266;77;28557;-85
2021/11/20 02:34:48;;;;;;;9.08;4.60;;;;;;;9.84;100.00;99403.81;4496063;77;28475;-86
2021/11/20 02:40:51;;;;;;;9.63;4.58;;;;;;;9.78;100.00;99377.84;4544550;77;28454;-85
2021/11/20 02:46:59;;;;;;;7.72;5.08;;;;;;;9.80;100.00;99377.94;4507426;77;28460;-85
2021/11/20 02:53:01;;;;;;;9.95;4.55;;;;;;;9.80;100.00;99399.41;4504119;77;28446;-85
2021/11/20 02:59:05;;;;;;;5.37;3.67;;;;;;;9.82;100.00;99401.86;4468490;78;28495;-84
2021/11/20 03:05:11;;;;;;;8.38;4.45;;;;;;;9.79;100.00;99401.80;4459124;78;28502;-86
2021/11/20 03:11:13;;;;;;;7.45;4.25;;;;;;;9.86;100.00;99389.66;4497079;77;28463;-81
2021/11/20 03:17:16;;;;;;;9.10;4.20;;;;;;;9.80;100.00;99398.58;4521912;78;28499;-84
2021/11/20 03:23:26;;;;;;;7.92;3.85;;;;;;;9.84;100.00;99415.89;4479166;77;28575;-84
2021/11/20 03:29:28;;;;;;;7.28;3.90;;;;;;;9.84;100.00;99407.84;4379228;79;28505;-83
2021/11/20 03:35:30;;;;;;;6.20;3.52;;;;;;;9.85;100.00;99427.77;4419672;79;28494;-83
2021/11/20 03:41:34;;;;;;;6.33;3.77;;;;;;;9.89;100.00;99428.16;4422342;79;28495;-84
2021/11/20 03:47:36;;;;;;;7.33;3.80;;;;;;;9.89;100.00;99428.16;4408565;79;28513;-84
2021/11/20 03:53:39;;;;;;;7.17;3.62;;;;;;;9.79;100.00;99417.08;4409278;79;28466;-84
2021/11/20 03:59:40;;;;;;;8.25;4.47;;;;;;;9.82;100.00;99446.17;4411908;79;28476;-85
2021/11/20 04:05:42;;;;;;;10.78;4.20;;;;;;;9.76;100.00;99463.47;4537037;77;28510;-83
2021/11/20 04:11:48;;;;;;;7.58;4.10;;;;;;;9.80;100.00;99472.42;4558753;77;28472;-84
2021/11/20 04:17:50;;;;;;;7.70;4.60;;;;;;;9.79;100.00;99477.50;4519354;77;28493;-83
2021/11/20 04:23:54;;;;;;;7.12;4.33;;;;;;;9.71;100.00;99484.75;4511858;77;28453;-83
2021/11/20 04:29:57;;;;;;;7.53;4.20;;;;;;;9.66;100.00;99468.98;4502350;77;28447;-82
2021/11/20 04:35:59;;;;;;;8.15;4.60;;;;;;;9.57;100.00;99477.28;4524844;77;28484;-85
2021/11/20 04:42:01;;;;;;;8.63;4.62;;;;;;;9.54;100.00;99475.56;4531586;77;28464;-86
2021/11/20 04:48:07;;;;;;;7.80;4.45;;;;;;;9.44;100.00;99483.55;4470705;77;28482;-86
2021/11/20 04:54:19;;;;;;;7.00;4.42;;;;;;;9.30;100.00;99479.25;4403062;79;28514;-86
2021/11/20 05:00:35;;;;;;;8.25;4.30;;;;;;;9.18;100.00;99463.00;4357492;79;28482;-85
2021/11/20 05:06:37;;;;;;;;;;;;;;;9.10;100.00;99480.66;4431308;79;28470;-84
2021/11/20 05:12:40;;;;;;;9.33;4.45;;;;;;;9.13;100.00;99480.23;4409974;79;20219;-85
2021/11/20 05:18:44;;;;;;;10.78;5.42;;;;;;;9.04;100.00;99477.77;4363340;80;28549;-86
2021/11/20 05:24:47;;;;;;;8.43;4.67;;;;;;;9.10;100.00;99490.86;4382980;81;28513;-83
2021/11/20 05:30:50;;;;;;;7.37;5.50;;;;;;;8.93;100.00;99496.69;4354826;80;28526;-81
2021/11/20 05:36:53;;;;;;;6.67;4.65;;;;;;;9.00;100.00;99491.81;4375692;80;28464;-83
2021/11/20 05:43:00;;;;;;;7.87;5.47;;;;;;;9.08;100.00;99494.28;4368727;81;28536;-81
2021/11/20 05:49:03;;;;;;;8.83;5.50;;;;;;;8.95;100.00;99507.19;4438311;78;28480;-84
2021/11/20 05:55:06;;;;;;;8.08;5.45;;;;;;;8.96;100.00;99502.16;4490547;79;28443;-81
2021/11/20 06:01:14;;;;;;;10.18;6.53;;;;;;;9.06;100.00;99507.92;4505592;78;28467;-82
2021/11/20 06:07:18;;;;;;;10.88;6.47;;;;;;;9.15;100.00;99519.23;4441773;78;28466;-82
2021/11/20 06:13:20;;;;;;;9.28;5.37;;;;;;;9.18;100.00;99519.34;4476074;78;28467;-82
2021/11/20 06:19:27;;;;;;;10.13;6.08;;;;;;;9.21;100.00;99533.67;4457760;78;28476;-83
2021/11/20 06:25:30;;;;;;;9.90;6.40;;;;;;;9.30;100.00;99546.33;4455392;78;28447;-81
2021/11/20 06:31:33;;;;;;;10.18;6.20;;;;;;;9.30;100.00;99540.97;4407664;81;28456;-86
2021/11/20 06:37:45;;;;;;;9.73;6.03;;;;;;;9.30;100.00;99551.70;4405909;79;28504;-81
2021/11/20 06:43:48;;;;;;;;;;;;;;;9.45;100.00;99567.05;4420551;80;28476;-81
2021/11/20 06:49:50;;;;;;;10.10;6.25;;;;;;;9.45;100.00;99555.48;4424096;80;20198;-81
2021/11/20 06:55:52;;;;;;;9.08;6.03;;;;;;;9.51;100.00;99572.09;4526534;79;28525;-82
2021/11/20 07:01:59;;;;;;;;;;;;;;;9.55;100.00;99585.39;4509211;77;28499;-80
2021/11/20 07:08:03;;;;;;;9.58;6.00;;;;;;;9.61;100.00;99597.98;4512065;77;20264;-77
2021/11/20 07:14:06;;;;;;;9.75;6.58;;;;;;;9.71;100.00;99612.83;4387747;80;28507;-77
2021/11/20 07:20:09;;;;;;;9.45;6.58;;;;;;;9.74;100.00;99623.14;4369196;80;28458;-77
2021/11/20 07:26:28;;;;;;;10.05;6.45;;;;;;;9.80;100.00;99610.72;4263220;80;28550;-81
2021/11/20 07:32:30;;;;;;;10.35;6.87;;;;;;;9.93;100.00;99604.48;4363968;80;28509;-79
2021/11/20 07:38:36;;;;;;;10.13;6.90;;;;;;;9.94;100.00;99619.03;4363981;80;28496;-84
2021/11/20 07:44:38;;;;;;;9.90;6.72;;;;;;;10.06;100.00;99611.67;4362074;80;28456;-85
2021/11/20 07:50:42;;;;;;;9.00;6.28;;;;;;;10.01;100.00;99611.78;4262290;81;28462;-86
2021/11/20 07:56:45;;;;;;;10.58;7.08;;;;;;;10.14;100.00;99614.93;4257706;83;28438;-86
2021/11/20 08:02:48;;;;;;;10.03;6.37;;;;;;;10.24;100.00;99621.71;4260933;82;28475;-86
2021/11/20 08:08:51;;;;;;;8.85;6.40;;;;;;;10.31;100.00;99603.70;4241045;82;28450;-81
2021/11/20 08:14:55;;;;;;;9.95;6.67;;;;;;;10.38;100.00;99608.49;4209274;83;28520;-81
2021/11/20 08:20:59;;;;;;;13.10;7.47;;;;;;;10.47;100.00;99591.64;4246492;82;28458;-85
2021/11/20 08:27:07;;;;;;;11.15;6.80;;;;;;;10.50;100.00;99607.33;4277084;82;28535;-81
2021/11/20 08:33:09;;;;;;;12.03;5.97;;;;;;;10.58;100.00;99604.89;4265702;82;28520;-82
2021/11/20 08:39:19;;;;;;;10.70;7.40;;;;;;;10.68;100.00;99620.56;4256884;82;28473;-77
2021/11/20 08:45:25;;;;;;;13.27;7.10;;;;;;;10.85;100.00;99627.58;4284196;82;28458;-75
2021/11/20 08:51:28;;;;;;;9.58;5.95;;;;;;;10.94;100.00;99617.36;4388208;80;28484;-77
2021/11/20 08:57:32;;;;;;;9.70;6.28;;;;;;;10.96;100.00;99616.10;4328544;80;28466;-79
2021/11/20 09:03:58;;;;;;;9.98;6.28;;;;;;;11.12;100.00;99614.73;4290193;82;28508;-79
2021/11/20 09:10:17;;;;;;;12.90;7.40;;;;;;;11.24;100.00;99622.08;4319642;80;28521;-77
2021/11/20 09:16:25;;;;;;;11.48;6.67;;;;;;;11.35;100.00;99617.31;4327364;82;28507;-81
2021/11/20 09:22:28;;;;;;;8.85;5.75;;;;;;;11.43;100.00;99617.54;4303170;82;28546;-77
2021/11/20 09:28:35;;;;;;;10.58;6.53;;;;;;;11.50;100.00;99617.47;4313258;82;28501;-79
2021/11/20 09:34:37;;;;;;;13.55;7.08;;;;;;;11.55;100.00;99623.83;4333158;81;28539;-78
2021/11/20 09:40:44;;;;;;;10.10;6.67;;;;;;;11.54;100.00;99608.72;4300288;80;28472;-75
2021/11/20 09:46:52;;;;;;;11.88;6.95;;;;;;;11.57;100.00;99609.64;4339914;80;28438;-76
2021/11/20 09:52:57;;;;;;;14.25;7.03;;;;;;;11.70;100.00;99611.34;4291581;80;28519;-75
2021/11/20 09:59:07;;;;;;;10.10;7.08;;;;;;;11.71;100.00;99610.33;4317438;80;28467;-78
2021/11/20 10:05:14;;;;;;;10.85;6.33;;;;;;;11.68;100.00;99598.63;4303843;81;28488;-77
2021/11/20 10:11:29;;;;;;;11.12;7.00;;;;;;;11.65;100.00;99585.62;4300704;81;28469;-79
2021/11/20 10:17:42;;;;;;;10.93;7.40;;;;;;;11.56;100.00;99578.38;4304692;80;28548;-75
2021/11/20 10:24:03;;;;;;;10.88;6.22;;;;;;;11.46;100.00;99553.84;4323202;80;28467;-76
2021/11/20 10:30:26;;;;;;;12.18;6.75;;;;;;;11.51;100.00;99571.48;4318393;80;28510;-78
2021/11/20 10:36:36;;;;;;;14.35;7.20;;;;;;;11.69;100.00;99575.23;4455730;77;28489;-77
2021/11/20 10:42:42;;;;;;;12.45;6.58;;;;;;;11.72;100.00;99574.77;4401274;79;28501;-81
2021/11/20 10:48:52;;;;;;;10.73;7.37;;;;;;;11.69;100.00;99558.52;4401048;79;28559;-83
2021/11/20 10:55:28;;;;;;;13.25;7.28;;;;;;;11.80;100.00;99543.48;4375972;79;28479;-71
2021/11/20 11:02:08;;;;;;;10.48;6.45;;;;;;;11.55;100.00;99539.55;4411731;79;28462;-78
2021/11/20 11:08:24;;;;;;;10.65;6.80;;;;;;;11.69;100.00;99533.48;4370890;79;28458;-70
2021/11/20 11:14:51;;;;;;;11.17;7.77;;;;;;;11.91;100.00;99528.95;4504712;77;28519;-82
2021/11/20 11:21:09;;;;;;;10.15;6.90;;;;;;;11.77;100.00;99529.13;4483572;77;35688;-70
2021/11/20 11:27:35;;;;;;;13.58;8.65;;;;;;;11.71;100.00;99536.25;4460557;77;28527;-72
2021/11/20 11:33:42;;;;;;;11.30;7.10;;;;;;;11.65;100.00;99552.47;4479712;77;28504;-72
2021/11/20 11:40:20;;;;;;;9.25;5.97;;;;;;;11.54;100.00;99547.33;4332152;81;28462;-72
2021/11/20 11:46:46;;;;;;;9.13;5.37;;;;;;;11.46;100.00;99539.03;4458392;77;28499;-71
2021/11/20 11:52:53;;;;;;;9.93;6.20;;;;;;;11.38;100.00;99546.05;4398731;79;28523;-73
2021/11/20 11:59:22;;;;;;;10.65;7.28;;;;;;;11.14;100.00;99533.24;4501257;77;28548;-71
2021/11/20 12:05:35;;;;;;;9.60;6.60;;;;;;;10.91;100.00;99531.72;4394842;79;28549;-71
2021/11/20 12:11:41;;;;;;;10.55;6.75;;;;;;;10.82;100.00;99521.23;4489600;77;28524;-72
2021/11/20 12:18:34;;;;;;;11.87;8.07;;;;;;;10.70;100.00;99507.67;4489793;77;28513;-71
2021/11/20 12:24:56;;;;;;;13.25;8.58;;;;;;;10.69;100.00;99489.89;4412712;79;28448;-74
2021/11/20 12:31:28;;;;;;;12.07;8.30;;;;;;;10.59;100.00;99489.57;4503057;77;28477;-71
2021/11/20 12:38:07;;;;;;;13.75;8.15;;;;;;;10.54;100.00;99480.02;4472126;77;28496;-70
2021/11/20 12:44:13;;;;;;;13.35;8.55;;;;;;;10.51;100.00;99479.09;4521104;77;28517;-71
2021/11/20 12:50:32;;;;;;;10.85;7.62;;;;;;;10.50;100.00;99459.47;4456906;77;28506;-70
2021/11/20 12:56:43;;;;;;;16.57;10.10;;;;;;;10.49;100.00;99461.86;4392183;79;28502;-75
2021/11/20 13:03:08;;;;;;;14.15;9.10;;;;;;;10.52;100.00;99453.88;4294572;81;28534;-77
2021/11/20 13:09:36;;;;;;;13.08;7.62;;;;;;;10.45;100.00;99449.88;4385185;79;28480;-78
2021/11/20 13:16:12;;;;;;;11.95;7.40;;;;;;;10.38;100.00;99447.75;4337570;79;28501;-74
2021/11/20 13:22:21;;;;;;;11.73;6.92;;;;;;;10.46;100.00;99444.29;4375724;79;28452;-76
2021/11/20 13:28:23;;;;;;;11.85;7.97;;;;;;;10.41;100.00;99428.02;4391884;78;28505;-73
2021/11/20 13:34:24;;;;;;;14.18;7.55;;;;;;;10.40;100.00;99431.69;4359469;79;28507;-74
2021/11/20 13:40:37;;;;;;;10.72;6.65;;;;;;;10.35;100.00;99439.61;4377656;79;28526;-77
2021/11/20 13:46:41;;;;;;;9.15;6.35;;;;;;;10.31;100.00;99427.66;4409192;79;28543;-78
2021/11/20 13:52:44;;;;;;;11.00;7.42;;;;;;;10.30;100.00;99432.20;4409125;79;28538;-74
2021/11/20 13:58:47;;;;;;;11.30;7.40;;;;;;;10.36;100.00;99430.49;4406205;79;28476;-75
2021/11/20 14:04:49;;;;;;;11.57;6.75;;;;;;;10.27;100.00;99431.30;4440645;79;28444;-74
2021/11/20 14:11:01;;;;;;;9.85;6.87;;;;;;;10.33;100.00;99419.66;4398401;79;28532;-75
2021/11/20 14:17:13;;;;;;;12.53;7.75;;;;;;;10.28;100.00;99423.54;4391805;79;28506;-75
2021/11/20 14:23:19;;;;;;;11.88;7.28;;;;;;;10.29;100.00;99418.46;4380492;79;28468;-78
2021/11/20 14:29:31;;;;;;;11.63;7.53;;;;;;;10.17;100.00;99417.53;4378084;79;28454;-75
2021/11/20 14:35:32;;;;;;;13.98;8.05;;;;;;;10.13;100.00;99427.06;4390841;79;28471;-74
2021/11/20 14:41:41;;;;;;;11.97;7.47;;;;;;;10.08;100.00;99422.34;4406787;79;28456;-74
2021/11/20 14:47:53;;;;;;;13.75;7.75;;;;;;;10.07;100.00;99424.72;4390276;79;28521;-76
2021/11/20 14:53:55;;;;;;;15.75;8.93;;;;;;;10.08;100.00;99410.78;4392411;79;28488;-78
2021/11/20 14:59:59;;;;;;;13.32;9.30;;;;;;;10.06;100.00;99415.56;4429507;79;28460;-75
2021/11/20 15:06:03;;;;;;;14.03;8.38;;;;;;;9.98;100.00;99411.25;4385748;79;28862;-78
2021/11/20 15:12:06;;;;;;;14.93;9.10;;;;;;;10.03;100.00;99416.81;4374477;79;28456;-78
2021/11/20 15:18:08;;;;;;;15.10;9.30;;;;;;;9.94;100.00;99417.58;4395709;79;28491;-77
2021/11/20 15:24:09;;;;;;;14.05;8.93;;;;;;;9.93;100.00;99409.22;4401691;79;28460;-77
2021/11/20 15:30:14;;;;;;;13.43;8.30;;;;;;;9.97;100.00;99402.89;4400650;79;28491;-77
2021/11/20 15:36:15;;;;;;;14.35;9.15;;;;;;;10.00;100.00;99393.08;4403605;79;28468;-76
2021/11/20 15:42:17;;;;;;;15.98;8.65;;;;;;;10.06;100.00;99380.09;4393317;79;28490;-74
2021/11/20 15:48:18;;;;;;;15.30;9.10;;;;;;;10.03;100.00;99378.66;4385051;79;28498;-75
2021/11/20 15:54:20;;;;;;;15.32;9.28;;;;;;;10.07;100.00;99375.56;4404076;79;28458;-73
2021/11/20 16:00:22;;;;;;;15.00;8.25;;;;;;;10.12;100.00;99383.27;4394919;79;28573;-75
2021/11/20 16:06:24;;;;;;;12.78;7.80;;;;;;;10.09;100.00;99369.44;4402701;79;28481;-74
2021/11/20 16:12:25;;;;;;;12.80;7.95;;;;;;;10.11;100.00;99360.13;4402822;79;28459;-75
2021/11/20 16:18:27;;;;;;;13.80;7.72;;;;;;;10.14;100.00;99350.28;4382094;79;28462;-75
2021/11/20 16:24:28;;;;;;;14.70;8.63;;;;;;;10.23;100.00;99356.72;4375643;81;28896;-77
2021/11/20 16:30:30;;;;;;;14.95;8.95;;;;;;;10.22;100.00;99349.16;4369767;79;28502;-75
2021/11/20 16:36:38;;;;;;;13.45;8.28;;;;;;;10.27;100.00;99343.13;4383772;79;28538;-75
2021/11/20 16:42:40;;;;;;;12.80;7.80;;;;;;;10.33;100.00;99329.62;4378022;80;28479;-77
2021/11/20 16:48:43;;;;;;;12.75;7.87;;;;;;;10.35;100.00;99334.78;4384172;80;28539;-74
2021/11/20 16:54:45;;;;;;;16.23;8.90;;;;;;;10.27;100.00;99317.09;4461496;77;28495;-75
2021/11/20 17:00:46;;;;;;;15.00;9.03;;;;;;;10.16;100.00;99321.86;4480582;79;28466;-74
2021/11/20 17:06:48;;;;;;;13.50;7.70;;;;;;;10.14;100.00;99305.95;4459596;79;28495;-76
2021/11/20 17:12:49;;;;;;;13.48;7.22;;;;;;;10.24;100.00;99285.27;4393321;81;28463;-77
2021/11/20 17:18:51;;;;;;;11.45;6.90;;;;;;;10.19;100.00;99283.78;4390711;80;28479;-76
2021/11/20 17:24:54;;;;;;;13.45;7.95;;;;;;;10.27;100.00;99274.60;4380888;81;28502;-76
2021/11/20 17:30:56;;;;;;;15.10;7.15;;;;;;;10.30;100.00;99272.30;4373100;81;28451;-76
2021/11/20 17:53:25;;;;;;;18.80;11.03;;;;;;;10.78;100.00;99247.56;4631366;74;85274;-81
2021/11/20 17:59:26;;;;;;;25.50;13.75;;;;;;;10.35;100.00;99242.06;4544069;76;28540;-75
2021/11/20 18:05:27;;;;;;;23.75;14.00;;;;;;;10.02;100.00;99233.84;4532492;76;28451;-77
2021/11/20 18:11:30;;;;;;;28.17;16.57;;;;;;;9.98;100.00;99232.63;4554481;76;28558;-74
2021/11/20 18:17:35;;;;;;;33.83;19.15;;;;;;;9.74;100.00;99237.32;4538159;76;28540;-74
2021/11/20 18:23:40;;;;;;;35.25;19.50;;;;;;;9.72;100.00;99231.33;4542232;76;28455;-75
2021/11/20 18:29:41;;;;;;;35.43;20.17;;;;;;;9.67;100.00;99228.50;4542695;76;28563;-75
2021/11/20 18:35:43;;;;;;;37.05;20.80;;;;;;;9.70;100.00;99218.64;4542311;76;28546;-77
2021/11/20 18:41:45;;;;;;;38.08;20.82;;;;;;;9.84;100.00;99218.00;4542309;76;28502;-76
2021/11/20 18:47:47;;;;;;;31.42;17.37;;;;;;;9.78;100.00;99212.16;4557004;76;28512;-77
2021/11/20 18:53:49;;;;;;;29.77;16.75;;;;;;;9.87;100.00;99200.09;4537249;76;28448;-77
2021/11/20 18:59:51;;;;;;;27.75;16.77;;;;;;;9.98;100.00;99197.20;4550009;76;28518;-83
2021/11/20 19:05:52;;;;;;;28.98;16.27;;;;;;;10.02;100.00;99191.67;4565115;76;28528;-84
2021/11/20 19:11:54;;;;;;;22.73;14.18;;;;;;;10.02;100.00;99193.02;4546120;76;28912;-81
2021/11/20 19:17:56;;;;;;;24.20;14.50;;;;;;;10.02;100.00;99183.61;4529929;76;28479;-81
2021/11/20 19:24:01;;;;;;;24.10;13.95;;;;;;;10.07;100.00;99182.14;4525945;76;28451;-84
2021/11/20 19:30:02;;;;;;;21.50;13.62;;;;;;;10.05;100.00;99178.33;4532451;76;28500;-80
2021/11/20 19:36:04;;;;;;;23.50;12.60;;;;;;;10.04;100.00;99173.46;4547280;76;28520;-82
2021/11/20 19:42:07;;;;;;;18.70;12.18;;;;;;;10.01;100.00;99168.55;4569702;76;28479;-82
2021/11/20 19:48:11;;;;;;;21.55;12.63;;;;;;;9.97;100.00;99159.81;4539897;76;28492;-81
2021/11/20 19:54:12;;;;;;;22.65;12.82;;;;;;;9.93;100.00;99155.41;4584053;76;28530;-86
2021/11/20 20:00:18;;;;;;;17.70;10.85;;;;;;;9.92;100.00;99155.11;4546020;76;28437;-83
2021/11/20 20:06:20;;;;;;;17.90;10.80;;;;;;;9.88;100.00;99150.71;4559186;76;28868;-85
2021/11/20 20:12:23;;;;;;;17.25;10.60;;;;;;;9.90;100.00;99143.78;4569450;76;28508;-83
2021/11/20 20:18:25;;;;;;;15.88;9.63;;;;;;;9.89;100.00;99134.92;4556878;76;28449;-82
2021/11/20 20:24:28;;;;;;;13.55;8.70;;;;;;;9.90;100.00;99124.47;4550663;76;28472;-88
2021/11/20 20:30:30;;;;;;;14.83;8.65;;;;;;;9.84;100.00;99120.50;4554791;76;28531;-88
2021/11/20 20:36:36;;;;;;;14.28;8.80;;;;;;;9.91;100.00;99127.97;4455821;78;28446;-85
2021/11/20 20:42:36;;;;;;;15.25;9.65;;;;;;;9.90;100.00;99127.16;4493639;77;28493;-89
2021/11/20 20:48:37;;;;;;;13.72;8.53;;;;;;;9.85;100.00;99127.53;4561335;76;28461;-86
2021/11/20 20:54:38;;;;;;;15.88;8.60;;;;;;;9.88;100.00;99117.14;4573366;76;28530;-83
2021/11/20 21:00:40;;;;;;;14.30;9.08;;;;;;;9.89;100.00;99105.89;4599739;76;28448;-83
2021/11/20 21:06:43;;;;;;;15.08;9.18;;;;;;;9.92;100.00;99104.63;4570313;77;28444;-84
2021/11/20 21:12:44;;;;;;;15.95;9.10;;;;;;;9.87;100.00;99108.79;4558552;76;28531;-86
2021/11/20 21:18:54;;;;;;;13.90;8.88;;;;;;;9.87;100.00;99098.05;4584971;76;28458;-84
2021/11/20 21:24:56;;;;;;;14.73;9.03;;;;;;;9.96;100.00;99091.03;4580608;76;28463;-82
2021/11/20 21:30:57;;;;;;;14.73;9.00;;;;;;;9.89;100.00;99091.12;4579229;76;28471;-87
2021/11/20 21:36:59;;;;;;;13.85;7.97;;;;;;;9.85;100.00;99080.00;4554430;76;28489;-82
2021/11/20 21:43:03;;;;;;;11.50;7.62;;;;;;;9.87;100.00;99077.91;4501385;76;28502;-82
2021/11/20 21:49:05;;;;;;;14.20;7.92;;;;;;;9.92;100.00;99078.57;4564168;76;28515;-84
2021/11/20 21:55:13;;;;;;;13.88;8.03;;;;;;;9.94;100.00;99071.64;4568734;76;28480;-81
2021/11/20 22:01:16;;;;;;;15.05;7.33;;;;;;;9.85;100.00;99067.92;4542749;77;28440;-86
2021/11/20 22:07:20;;;;;;;11.08;7.03;;;;;;;9.84;100.00;99061.42;4562282;76;28452;-87
2021/11/20 22:13:22;;;;;;;12.43;7.90;;;;;;;9.85;100.00;99047.78;4555856;77;28454;-86
2021/11/20 22:19:24;;;;;;;14.70;8.05;;;;;;;9.82;100.00;99035.32;4589780;76;28497;-86
2021/11/20 22:25:26;;;;;;;10.38;6.60;;;;;;;9.80;100.00;99036.08;4529533;78;28515;-87
2021/11/20 22:31:29;;;;;;;12.98;7.95;;;;;;;9.75;100.00;99021.48;4501508;77;28489;-84
2021/11/20 22:37:31;;;;;;;13.40;8.08;;;;;;;9.72;100.00;99017.87;4527974;77;28490;-83
2021/11/20 22:43:33;;;;;;;13.65;8.15;;;;;;;9.66;100.00;99014.77;4534843;76;28506;-84
2021/11/20 22:49:37;;;;;;;13.43;8.13;;;;;;;9.58;100.00;99005.68;4546750;77;28496;-84
2021/11/20 22:55:39;;;;;;;15.88;9.40;;;;;;;9.59;100.00;98996.58;4536191;77;28529;-83
2021/11/20 23:01:41;;;;;;;15.13;9.65;;;;;;;9.60;100.00;98995.02;4540856;78;28443;-85
2021/11/20 23:07:44;;;;;;;14.70;8.50;;;;;;;9.57;100.00;98986.59;4498214;78;28492;-84
2021/11/20 23:13:48;;;;;;;12.78;8.60;;;;;;;9.61;100.00;98989.12;4530984;78;28470;-83
2021/11/20 23:19:52;;;;;;;13.55;8.58;;;;;;;9.61;100.00;98974.35;4532198;78;28501;-86
2021/11/20 23:25:55;;;;;;;13.22;7.95;;;;;;;9.62;100.00;98964.74;4496074;78;28570;-85
2021/11/20 23:31:56;;;;;;;12.25;6.75;;;;;;;9.66;100.00;98953.03;4493544;78;28550;-86
2021/11/20 23:37:58;;;;;;;11.45;6.58;;;;;;;9.65;100.00;98940.66;4540482;78;28500;-83
2021/11/20 23:43:59;;;;;;;12.90;7.80;;;;;;;9.64;100.00;98936.34;4520344;78;28448;-85
2021/11/20 23:50:02;;;;;;;15.03;8.13;;;;;;;9.67;100.00;98934.53;4522795;78;28525;-83
2021/11/20 23:56:04;;;;;;;13.65;7.60;;;;;;;9.64;100.00;98929.62;4528204;78;28461;-85
